Diwopu, Xinjiang Uygur

12:48 AM CST on February 02, 2015 (GMT +0800)
Diwopu | Change Station
CLOSE
Current Station
Airport
Location: Urumqi Diwopu,
Elevation: 2146 ft
Nearby Weather Stations

Elev 2146 ft 43.91 °N, 87.47 °E | Updated 18 minutes ago

Mist
Mist
1 °F
Feels Like 1 °F
N
2
Wind Variable Wind from ENE

Today
High -- | Low -- °F
--% Chance of Precip.
Yesterday
High -- | Low -- °F
Precip. -- in
9:26 AM 7:21 PM
Waxing Gibbous, 95% visible
Pressure 30.36 in
Visibility 0.6 miles
Clouds
Dew Point -2 °F
Humidity 85%
Rainfall 0.00 in
Snow Depth Not available.
UV Not available.
Pollen Not available.
Air Quality Not available.
Flu Activity Not available.
METAR ZWWW 011630Z 07001MPS 1000 R25/1500N BR NSC M17/M19 Q1028 BECMG TL1800 0900 FZFG

More Conditions Fewer Conditions

Pressure 30.36 in
Visibility 0.6 miles
Clouds
Dew Point -2 °F
Humidity 85%
Rainfall 0.00 in
Snow Depth Not available.
UV Not available.
Pollen Not available.
Air Quality Not available.
Flu Activity Not available.
METAR ZWWW 011630Z 07001MPS 1000 R25/1500N BR NSC M17/M19 Q1028 BECMG TL1800 0900 FZFG

More Conditions Fewer Conditions

10-Day Weather Forecast

Almanac

Astronomy

Feb. 02, 2015 Rise Set
Actual Time
Civil Twilight
Nautical Twilight
Astronomical Twilight
Moon
Length of Visible Light
Length of Day
Tomorrow will be .
, % of the Moon is Illuminated

Today's Extremes

Country Highs Country Lows

Community

WunderPhotos

Upload Photos

1,792,367 photos uploaded!

WunderBlogs® & News

Nearby

Air Quality

  Air Quality AQ Index Pollutant
Not available.

Snow Depth

Station Depth Elevation

Earthquake Activity

City Distance Mag. Time & Date
Minimum magnitude displayed is 2.5.

Coastal Water Temperatures

Place Temperature

Nearby Weather Stations